In Rescue
 
Open Full Screen Window  High Contrast Mode
Wind Gusting 00 knots
07
September 19, 2019 5:22 PM EDT
Weather Information
Wind Direction
  190 °
Wind Speed
  07 kt (8 mph)
Wind Gust
  00 kt (0 mph)
Variable Wind
110°
210°
Altimeter
30.12 in
Visibility
10 SM
Temperature
25° C
77° F
Dewpoint
13° C
55° F
Humidity
47%
Sky Condition
Clear
VFR

METAR KBAX 192122Z AUTO 19007KT 110V210 10SM CLR 25/13 A3012 RMK AO2 T02530131

FAA Disclaimer: The data displayed is for advisory purposes only and is not to be used for flight planning or operations.